New Hampshire, Ohio
Current Conditions -  °F | °C
As of 6:12 AM on Wednesday 26 Nov 2014 (Local Time) from KAOH Reporting Station
Overcast Overcast  
Wind Chill: 28°   Ceiling: 1500
Heat Index: 28°   Visibility: 10mi
Dew Point: 21°   Wind: 3mph
Humidity: 75%   Direction: 50°NE
Pressure: 30.13"   Gusts: NA
Location:  40.56°N, 83.95°W
Report Text: KAOH 261112Z AUTO 05003KT 10SM OVC015 M02/M06 A3013 RMK AO2 T10221061
Loading
Personal Weather Stations






























Interactive Weather Map New forecast layout! Learn more

10-Day Weather Forecast

Advertisements
Track Severe Weather on mobile